الرياض, Saudi Arabia

05:29 PM AST on لبراêر 14, 2016 (GMT +0300)
Alsahafah District Abo Mohammed | | Change Station
CLOSE
Current Station
Personal Weather Stations
Location: Riyadh, RIYADH PROVINCE
Elevation: 2129 ft
Nearby Weather Stations

Elev 2129 ft 24.79 °N, 46.65 °E | Updated 5 minutes ago

Clear
صافية
70.3 °F
Feels Like 74 °F
N
2.2
ريح متغير ريح from شمال

هذا اليوم
High -- | Low -- °F
--% Chance of Precip.
Yesterday
High -- | Low -- °F
Precip. -- في
الضغط 30.15 في
وضوح الرؤية -9999.0 أميال
سحابات
مؤشر الحرارة 74 °F
نقطة الندى 27 °F
الرطوبة 20%
Rainfall 0.00 في
عمق الثلج Not available.
6:28 AM 5:46 PM
الهلال الأول, 42% visible
METAR OERK 141400Z 36004KT CAVOK 22/M05 Q1021 NOSIG
الضغط 30.15 في
وضوح الرؤية -9999.0 أميال
سحابات
مؤشر الحرارة 74 °F
نقطة الندى 27 °F
الرطوبة 20%
Rainfall 0.00 في
عمق الثلج Not available.
6:28 AM 5:46 PM
الهلال الأول, 42% visible
METAR OERK 141400Z 36004KT CAVOK 22/M05 Q1021 NOSIG

10-Day Weather Forecast

No radar image for this location.
×

Almanac

علم الفلك

Feb. 14, 2016 Rise Set
Actual Time
Civil Twilight
Nautical Twilight
Astronomical Twilight
قمر
Length Of Visible Light
طول الیوم
Tomorrow will be .
, % of the Moon is Illuminated

Today's Extremes

Country Highs Country Lows

Community

WunderPhotos

Upload Photos

1,892,800 photos uploaded!

WunderBlog® & News

Nearby

جودة الهواء

  جودة الهواء AQ Index Pollutant
Not available.

عمق الثلج

Station Depth Elevation

Earthquake Activity

City Distance Mag. Time & Date
Minimum magnitude displayed is 2.5.

Coastal Water Temperatures

مكان درجات الحرارة

Stations

Nearby Weather Stations

Station Location الحرارة رياح باردة نقطة الندى الرطوبة ريح Precip. Elev تحديث Type